sensor_id;sensor_type;location;lat;lon;timestamp;temperature;humidity
67379;DHT22;54262;44.642;-0.974;2023-11-21T00:01:36;15.60;99.90
67379;DHT22;54262;44.642;-0.974;2023-11-21T00:04:02;15.70;99.90
67379;DHT22;54262;44.642;-0.974;2023-11-21T00:06:28;15.70;99.90
67379;DHT22;54262;44.642;-0.974;2023-11-21T00:08:55;15.40;99.90
67379;DHT22;54262;44.642;-0.974;2023-11-21T00:11:21;15.30;99.90
67379;DHT22;54262;44.642;-0.974;2023-11-21T00:13:49;15.20;99.90
67379;DHT22;54262;44.642;-0.974;2023-11-21T00:16:15;15.10;99.90
67379;DHT22;54262;44.642;-0.974;2023-11-21T00:18:43;14.90;99.90
67379;DHT22;54262;44.642;-0.974;2023-11-21T00:21:09;14.80;99.90
67379;DHT22;54262;44.642;-0.974;2023-11-21T00:23:34;14.90;99.90
67379;DHT22;54262;44.642;-0.974;2023-11-21T00:26:00;15.00;99.90
67379;DHT22;54262;44.642;-0.974;2023-11-21T00:28:26;14.90;99.90
67379;DHT22;54262;44.642;-0.974;2023-11-21T00:30:52;14.90;99.90
67379;DHT22;54262;44.642;-0.974;2023-11-21T00:33:17;14.90;99.90
67379;DHT22;54262;44.642;-0.974;2023-11-21T00:35:43;14.90;99.90
67379;DHT22;54262;44.642;-0.974;2023-11-21T00:38:09;14.80;99.90
67379;DHT22;54262;44.642;-0.974;2023-11-21T00:40:35;14.80;99.90
67379;DHT22;54262;44.642;-0.974;2023-11-21T00:43:00;14.70;99.90
67379;DHT22;54262;44.642;-0.974;2023-11-21T00:45:26;14.70;99.90
67379;DHT22;54262;44.642;-0.974;2023-11-21T00:47:52;14.60;99.90
67379;DHT22;54262;44.642;-0.974;2023-11-21T00:50:17;14.70;99.90
67379;DHT22;54262;44.642;-0.974;2023-11-21T00:52:43;14.70;99.90
67379;DHT22;54262;44.642;-0.974;2023-11-21T00:55:09;14.70;99.90
67379;DHT22;54262;44.642;-0.974;2023-11-21T00:57:35;15.20;99.90
67379;DHT22;54262;44.642;-0.974;2023-11-21T01:00:03;15.50;99.90
67379;DHT22;54262;44.642;-0.974;2023-11-21T01:02:33;15.50;99.90
67379;DHT22;54262;44.642;-0.974;2023-11-21T01:05:01;15.50;99.90
67379;DHT22;54262;44.642;-0.974;2023-11-21T01:07:26;15.30;99.90
67379;DHT22;54262;44.642;-0.974;2023-11-21T01:09:52;15.10;99.90
67379;DHT22;54262;44.642;-0.974;2023-11-21T01:12:18;15.00;99.90
67379;DHT22;54262;44.642;-0.974;2023-11-21T01:14:47;15.00;99.90
67379;DHT22;54262;44.642;-0.974;2023-11-21T01:17:12;15.00;99.90
67379;DHT22;54262;44.642;-0.974;2023-11-21T01:19:40;14.90;99.90
67379;DHT22;54262;44.642;-0.974;2023-11-21T01:22:06;14.80;99.90
67379;DHT22;54262;44.642;-0.974;2023-11-21T01:24:31;14.80;99.90
67379;DHT22;54262;44.642;-0.974;2023-11-21T01:26:57;14.70;99.90
67379;DHT22;54262;44.642;-0.974;2023-11-21T01:29:23;14.60;99.90
67379;DHT22;54262;44.642;-0.974;2023-11-21T01:31:48;14.70;99.90
67379;DHT22;54262;44.642;-0.974;2023-11-21T01:34:14;15.00;99.90
67379;DHT22;54262;44.642;-0.974;2023-11-21T01:36:39;15.20;99.90
67379;DHT22;54262;44.642;-0.974;2023-11-21T01:39:05;15.60;99.90
67379;DHT22;54262;44.642;-0.974;2023-11-21T01:41:34;15.40;99.90
67379;DHT22;54262;44.642;-0.974;2023-11-21T01:44:00;15.20;99.90
67379;DHT22;54262;44.642;-0.974;2023-11-21T01:46:26;15.10;99.90
67379;DHT22;54262;44.642;-0.974;2023-11-21T01:48:52;15.10;99.90
67379;DHT22;54262;44.642;-0.974;2023-11-21T01:51:19;15.00;99.90
67379;DHT22;54262;44.642;-0.974;2023-11-21T01:53:45;15.00;99.90
67379;DHT22;54262;44.642;-0.974;2023-11-21T01:56:15;15.00;99.90
67379;DHT22;54262;44.642;-0.974;2023-11-21T01:58:41;14.90;99.90
67379;DHT22;54262;44.642;-0.974;2023-11-21T02:01:07;14.90;99.90
67379;DHT22;54262;44.642;-0.974;2023-11-21T02:03:34;14.80;99.90
67379;DHT22;54262;44.642;-0.974;2023-11-21T02:06:00;14.80;99.90
67379;DHT22;54262;44.642;-0.974;2023-11-21T02:08:26;14.70;99.90
67379;DHT22;54262;44.642;-0.974;2023-11-21T02:10:52;14.80;99.90
67379;DHT22;54262;44.642;-0.974;2023-11-21T02:13:18;14.80;99.90
67379;DHT22;54262;44.642;-0.974;2023-11-21T02:15:46;14.90;99.90
67379;DHT22;54262;44.642;-0.974;2023-11-21T02:18:13;14.90;99.90
67379;DHT22;54262;44.642;-0.974;2023-11-21T02:20:40;14.90;99.90
67379;DHT22;54262;44.642;-0.974;2023-11-21T02:23:08;14.90;99.90
67379;DHT22;54262;44.642;-0.974;2023-11-21T02:25:33;14.90;99.90
67379;DHT22;54262;44.642;-0.974;2023-11-21T02:28:01;14.90;99.90
67379;DHT22;54262;44.642;-0.974;2023-11-21T02:30:27;14.80;99.90
67379;DHT22;54262;44.642;-0.974;2023-11-21T02:32:54;14.90;99.90
67379;DHT22;54262;44.642;-0.974;2023-11-21T02:35:20;14.80;99.90
67379;DHT22;54262;44.642;-0.974;2023-11-21T02:37:51;14.80;99.90
67379;DHT22;54262;44.642;-0.974;2023-11-21T02:40:17;14.70;99.90
67379;DHT22;54262;44.642;-0.974;2023-11-21T02:42:47;14.50;99.90
67379;DHT22;54262;44.642;-0.974;2023-11-21T02:45:13;14.50;99.90
67379;DHT22;54262;44.642;-0.974;2023-11-21T02:47:42;14.40;99.90
67379;DHT22;54262;44.642;-0.974;2023-11-21T02:50:08;14.30;99.90
67379;DHT22;54262;44.642;-0.974;2023-11-21T02:52:35;14.30;99.90
67379;DHT22;54262;44.642;-0.974;2023-11-21T02:55:03;14.30;99.90
67379;DHT22;54262;44.642;-0.974;2023-11-21T02:57:29;14.30;99.90
67379;DHT22;54262;44.642;-0.974;2023-11-21T02:59:55;14.30;99.90
67379;DHT22;54262;44.642;-0.974;2023-11-21T03:02:21;14.20;99.90
67379;DHT22;54262;44.642;-0.974;2023-11-21T03:04:47;14.30;99.90
67379;DHT22;54262;44.642;-0.974;2023-11-21T03:07:16;14.20;99.90
67379;DHT22;54262;44.642;-0.974;2023-11-21T03:09:45;14.30;99.90
67379;DHT22;54262;44.642;-0.974;2023-11-21T03:12:11;14.40;99.90
67379;DHT22;54262;44.642;-0.974;2023-11-21T03:14:38;14.40;99.90
67379;DHT22;54262;44.642;-0.974;2023-11-21T03:17:07;14.40;99.90
67379;DHT22;54262;44.642;-0.974;2023-11-21T03:19:32;14.30;99.90
67379;DHT22;54262;44.642;-0.974;2023-11-21T03:22:00;14.30;99.90
67379;DHT22;54262;44.642;-0.974;2023-11-21T03:24:26;14.20;99.90
67379;DHT22;54262;44.642;-0.974;2023-11-21T03:26:52;14.00;99.90
67379;DHT22;54262;44.642;-0.974;2023-11-21T03:29:18;13.90;99.90
67379;DHT22;54262;44.642;-0.974;2023-11-21T03:31:44;13.80;99.90
67379;DHT22;54262;44.642;-0.974;2023-11-21T03:34:16;14.00;99.90
67379;DHT22;54262;44.642;-0.974;2023-11-21T03:36:41;14.00;99.90
67379;DHT22;54262;44.642;-0.974;2023-11-21T03:39:07;14.10;99.90
67379;DHT22;54262;44.642;-0.974;2023-11-21T03:41:33;14.10;99.90
67379;DHT22;54262;44.642;-0.974;2023-11-21T03:43:59;14.10;99.90
67379;DHT22;54262;44.642;-0.974;2023-11-21T03:46:25;14.00;99.90
67379;DHT22;54262;44.642;-0.974;2023-11-21T03:48:51;14.10;99.90
67379;DHT22;54262;44.642;-0.974;2023-11-21T03:51:16;14.00;99.90
67379;DHT22;54262;44.642;-0.974;2023-11-21T03:53:42;14.10;99.90
67379;DHT22;54262;44.642;-0.974;2023-11-21T03:56:08;14.20;99.90
67379;DHT22;54262;44.642;-0.974;2023-11-21T03:58:34;14.10;99.90
67379;DHT22;54262;44.642;-0.974;2023-11-21T04:00:59;14.10;99.90
67379;DHT22;54262;44.642;-0.974;2023-11-21T04:03:25;14.10;99.90
67379;DHT22;54262;44.642;-0.974;2023-11-21T04:05:51;13.90;99.90
67379;DHT22;54262;44.642;-0.974;2023-11-21T04:08:16;13.80;99.90
67379;DHT22;54262;44.642;-0.974;2023-11-21T04:10:42;13.80;99.90
67379;DHT22;54262;44.642;-0.974;2023-11-21T04:13:08;13.90;99.90
67379;DHT22;54262;44.642;-0.974;2023-11-21T04:15:33;13.80;99.90
67379;DHT22;54262;44.642;-0.974;2023-11-21T04:18:01;13.80;99.90
67379;DHT22;54262;44.642;-0.974;2023-11-21T04:20:27;13.80;99.90
67379;DHT22;54262;44.642;-0.974;2023-11-21T04:22:55;13.80;99.90
67379;DHT22;54262;44.642;-0.974;2023-11-21T04:25:21;13.70;99.90
67379;DHT22;54262;44.642;-0.974;2023-11-21T04:27:49;13.70;99.90
67379;DHT22;54262;44.642;-0.974;2023-11-21T04:30:14;13.80;99.90
67379;DHT22;54262;44.642;-0.974;2023-11-21T04:32:40;13.90;99.90
67379;DHT22;54262;44.642;-0.974;2023-11-21T04:35:07;13.90;99.90
67379;DHT22;54262;44.642;-0.974;2023-11-21T04:37:34;13.90;99.90
67379;DHT22;54262;44.642;-0.974;2023-11-21T04:39:59;13.80;99.90
67379;DHT22;54262;44.642;-0.974;2023-11-21T04:42:25;13.80;99.90
67379;DHT22;54262;44.642;-0.974;2023-11-21T04:44:51;13.80;99.90
67379;DHT22;54262;44.642;-0.974;2023-11-21T04:47:18;13.80;99.90
67379;DHT22;54262;44.642;-0.974;2023-11-21T04:49:46;13.80;99.90
67379;DHT22;54262;44.642;-0.974;2023-11-21T04:52:15;13.80;99.90
67379;DHT22;54262;44.642;-0.974;2023-11-21T04:54:40;13.80;99.90
67379;DHT22;54262;44.642;-0.974;2023-11-21T04:57:06;13.80;99.90
67379;DHT22;54262;44.642;-0.974;2023-11-21T04:59:35;13.80;99.90
67379;DHT22;54262;44.642;-0.974;2023-11-21T05:02:01;13.90;99.90
67379;DHT22;54262;44.642;-0.974;2023-11-21T05:04:26;13.80;99.90
67379;DHT22;54262;44.642;-0.974;2023-11-21T05:06:52;13.80;99.90
67379;DHT22;54262;44.642;-0.974;2023-11-21T05:09:18;13.80;99.90
67379;DHT22;54262;44.642;-0.974;2023-11-21T05:11:43;13.80;99.90
67379;DHT22;54262;44.642;-0.974;2023-11-21T05:14:09;13.90;99.90
67379;DHT22;54262;44.642;-0.974;2023-11-21T05:16:35;13.90;99.90
67379;DHT22;54262;44.642;-0.974;2023-11-21T05:19:04;13.90;99.90
67379;DHT22;54262;44.642;-0.974;2023-11-21T05:21:31;14.00;99.90
67379;DHT22;54262;44.642;-0.974;2023-11-21T05:23:59;14.00;99.90
67379;DHT22;54262;44.642;-0.974;2023-11-21T05:26:25;13.90;99.90
67379;DHT22;54262;44.642;-0.974;2023-11-21T05:28:50;13.90;99.90
67379;DHT22;54262;44.642;-0.974;2023-11-21T05:31:16;14.00;99.90
67379;DHT22;54262;44.642;-0.974;2023-11-21T05:33:42;13.90;99.90
67379;DHT22;54262;44.642;-0.974;2023-11-21T05:36:08;13.80;99.90
67379;DHT22;54262;44.642;-0.974;2023-11-21T05:38:35;13.80;99.90
67379;DHT22;54262;44.642;-0.974;2023-11-21T05:41:02;13.70;99.90
67379;DHT22;54262;44.642;-0.974;2023-11-21T05:43:29;13.60;99.90
67379;DHT22;54262;44.642;-0.974;2023-11-21T05:45:56;13.60;99.90
67379;DHT22;54262;44.642;-0.974;2023-11-21T05:48:22;13.80;99.90
67379;DHT22;54262;44.642;-0.974;2023-11-21T05:50:48;13.70;99.90
67379;DHT22;54262;44.642;-0.974;2023-11-21T05:53:15;13.80;99.90
67379;DHT22;54262;44.642;-0.974;2023-11-21T05:55:41;13.70;99.90
67379;DHT22;54262;44.642;-0.974;2023-11-21T05:58:07;13.80;99.90
67379;DHT22;54262;44.642;-0.974;2023-11-21T06:00:33;13.80;99.90
67379;DHT22;54262;44.642;-0.974;2023-11-21T06:02:59;13.80;99.90
67379;DHT22;54262;44.642;-0.974;2023-11-21T06:05:26;13.90;99.90
67379;DHT22;54262;44.642;-0.974;2023-11-21T06:07:52;14.00;99.90
67379;DHT22;54262;44.642;-0.974;2023-11-21T06:10:23;14.00;99.90
67379;DHT22;54262;44.642;-0.974;2023-11-21T06:12:49;14.00;99.90
67379;DHT22;54262;44.642;-0.974;2023-11-21T06:15:15;13.90;99.90
67379;DHT22;54262;44.642;-0.974;2023-11-21T06:17:42;14.00;99.90
67379;DHT22;54262;44.642;-0.974;2023-11-21T06:20:11;14.00;99.90
67379;DHT22;54262;44.642;-0.974;2023-11-21T06:22:41;14.10;99.90
67379;DHT22;54262;44.642;-0.974;2023-11-21T06:25:11;14.10;99.90
67379;DHT22;54262;44.642;-0.974;2023-11-21T06:27:40;14.10;99.90
67379;DHT22;54262;44.642;-0.974;2023-11-21T06:30:07;14.20;99.90
67379;DHT22;54262;44.642;-0.974;2023-11-21T06:32:35;14.20;99.90
67379;DHT22;54262;44.642;-0.974;2023-11-21T06:35:02;14.10;99.90
67379;DHT22;54262;44.642;-0.974;2023-11-21T06:37:29;14.10;99.90
67379;DHT22;54262;44.642;-0.974;2023-11-21T06:39:56;13.90;99.90
67379;DHT22;54262;44.642;-0.974;2023-11-21T06:42:23;13.90;99.90
67379;DHT22;54262;44.642;-0.974;2023-11-21T06:44:50;13.70;99.90
67379;DHT22;54262;44.642;-0.974;2023-11-21T06:47:19;13.70;99.90
67379;DHT22;54262;44.642;-0.974;2023-11-21T06:49:50;13.50;99.90
67379;DHT22;54262;44.642;-0.974;2023-11-21T06:52:16;13.30;99.90
67379;DHT22;54262;44.642;-0.974;2023-11-21T06:54:42;13.40;99.90
67379;DHT22;54262;44.642;-0.974;2023-11-21T06:57:07;13.50;99.90
67379;DHT22;54262;44.642;-0.974;2023-11-21T06:59:33;13.60;99.90
67379;DHT22;54262;44.642;-0.974;2023-11-21T07:01:59;13.70;99.90
67379;DHT22;54262;44.642;-0.974;2023-11-21T07:04:25;13.60;99.90
67379;DHT22;54262;44.642;-0.974;2023-11-21T07:06:53;13.50;99.90
67379;DHT22;54262;44.642;-0.974;2023-11-21T07:09:18;13.50;99.90
67379;DHT22;54262;44.642;-0.974;2023-11-21T07:11:47;13.50;99.90
67379;DHT22;54262;44.642;-0.974;2023-11-21T07:14:14;13.30;99.90
67379;DHT22;54262;44.642;-0.974;2023-11-21T07:16:40;13.40;99.90
67379;DHT22;54262;44.642;-0.974;2023-11-21T07:19:06;13.40;99.90
67379;DHT22;54262;44.642;-0.974;2023-11-21T07:21:38;13.40;99.90
67379;DHT22;54262;44.642;-0.974;2023-11-21T07:24:04;13.50;99.90
67379;DHT22;54262;44.642;-0.974;2023-11-21T07:26:32;13.50;99.90
67379;DHT22;54262;44.642;-0.974;2023-11-21T07:29:03;13.70;99.90
67379;DHT22;54262;44.642;-0.974;2023-11-21T07:31:29;13.70;99.90
67379;DHT22;54262;44.642;-0.974;2023-11-21T07:33:55;13.90;99.90
67379;DHT22;54262;44.642;-0.974;2023-11-21T07:36:24;14.10;99.90
67379;DHT22;54262;44.642;-0.974;2023-11-21T07:38:50;14.20;99.90
67379;DHT22;54262;44.642;-0.974;2023-11-21T07:41:17;14.20;99.90
67379;DHT22;54262;44.642;-0.974;2023-11-21T07:43:46;14.30;99.90
67379;DHT22;54262;44.642;-0.974;2023-11-21T07:46:12;13.40;99.90
67379;DHT22;54262;44.642;-0.974;2023-11-21T07:48:42;14.40;99.90
67379;DHT22;54262;44.642;-0.974;2023-11-21T07:51:08;13.60;99.90
67379;DHT22;54262;44.642;-0.974;2023-11-21T07:53:35;13.80;99.90
67379;DHT22;54262;44.642;-0.974;2023-11-21T07:56:08;13.30;99.90
67379;DHT22;54262;44.642;-0.974;2023-11-21T07:58:37;13.90;99.90
67379;DHT22;54262;44.642;-0.974;2023-11-21T08:01:03;15.50;99.90
67379;DHT22;54262;44.642;-0.974;2023-11-21T08:03:30;14.60;99.90
67379;DHT22;54262;44.642;-0.974;2023-11-21T08:05:59;15.00;99.90
67379;DHT22;54262;44.642;-0.974;2023-11-21T08:08:25;15.50;99.90
67379;DHT22;54262;44.642;-0.974;2023-11-21T08:10:52;17.20;99.90
67379;DHT22;54262;44.642;-0.974;2023-11-21T08:13:25;16.60;99.90
67379;DHT22;54262;44.642;-0.974;2023-11-21T08:15:54;14.60;99.90
67379;DHT22;54262;44.642;-0.974;2023-11-21T08:18:22;15.00;99.90
67379;DHT22;54262;44.642;-0.974;2023-11-21T08:20:48;14.60;99.90
67379;DHT22;54262;44.642;-0.974;2023-11-21T08:23:19;14.40;99.90
67379;DHT22;54262;44.642;-0.974;2023-11-21T08:25:46;16.60;99.90
67379;DHT22;54262;44.642;-0.974;2023-11-21T08:28:14;17.60;99.90
67379;DHT22;54262;44.642;-0.974;2023-11-21T08:30:41;17.10;99.90
67379;DHT22;54262;44.642;-0.974;2023-11-21T08:33:07;14.90;99.90
67379;DHT22;54262;44.642;-0.974;2023-11-21T08:35:34;16.60;99.90
67379;DHT22;54262;44.642;-0.974;2023-11-21T08:38:02;17.60;99.90
67379;DHT22;54262;44.642;-0.974;2023-11-21T08:40:27;14.80;99.90
67379;DHT22;54262;44.642;-0.974;2023-11-21T08:42:59;15.00;99.90
67379;DHT22;54262;44.642;-0.974;2023-11-21T08:45:25;15.80;99.90
67379;DHT22;54262;44.642;-0.974;2023-11-21T08:47:54;15.60;99.90
67379;DHT22;54262;44.642;-0.974;2023-11-21T08:50:20;15.40;99.90
67379;DHT22;54262;44.642;-0.974;2023-11-21T08:52:47;15.70;99.90
67379;DHT22;54262;44.642;-0.974;2023-11-21T08:55:13;14.90;99.90
67379;DHT22;54262;44.642;-0.974;2023-11-21T08:57:39;15.20;99.90
67379;DHT22;54262;44.642;-0.974;2023-11-21T09:00:10;16.00;99.90
67379;DHT22;54262;44.642;-0.974;2023-11-21T09:02:45;14.90;99.90
67379;DHT22;54262;44.642;-0.974;2023-11-21T09:05:11;14.70;99.90
67379;DHT22;54262;44.642;-0.974;2023-11-21T09:07:40;15.90;99.90
67379;DHT22;54262;44.642;-0.974;2023-11-21T09:10:09;16.10;99.90
67379;DHT22;54262;44.642;-0.974;2023-11-21T09:12:36;15.10;99.90
67379;DHT22;54262;44.642;-0.974;2023-11-21T09:15:06;13.70;99.90
67379;DHT22;54262;44.642;-0.974;2023-11-21T09:17:33;14.10;99.90
67379;DHT22;54262;44.642;-0.974;2023-11-21T09:20:06;14.00;99.90
67379;DHT22;54262;44.642;-0.974;2023-11-21T09:22:35;14.60;99.90
67379;DHT22;54262;44.642;-0.974;2023-11-21T09:25:03;15.20;99.90
67379;DHT22;54262;44.642;-0.974;2023-11-21T09:27:32;15.50;99.90
67379;DHT22;54262;44.642;-0.974;2023-11-21T09:30:00;15.40;99.90
67379;DHT22;54262;44.642;-0.974;2023-11-21T09:32:26;14.50;99.90
67379;DHT22;54262;44.642;-0.974;2023-11-21T09:34:52;13.80;99.90
67379;DHT22;54262;44.642;-0.974;2023-11-21T09:37:19;13.50;99.90
67379;DHT22;54262;44.642;-0.974;2023-11-21T09:39:44;13.60;99.90
67379;DHT22;54262;44.642;-0.974;2023-11-21T09:42:19;13.50;99.90
67379;DHT22;54262;44.642;-0.974;2023-11-21T09:48:02;13.40;99.90
67379;DHT22;54262;44.642;-0.974;2023-11-21T09:50:28;13.30;99.90
67379;DHT22;54262;44.642;-0.974;2023-11-21T09:55:27;13.40;99.90
67379;DHT22;54262;44.642;-0.974;2023-11-21T09:57:57;13.70;99.90
67379;DHT22;54262;44.642;-0.974;2023-11-21T10:00:23;13.80;99.90
67379;DHT22;54262;44.642;-0.974;2023-11-21T10:02:50;14.10;99.90
67379;DHT22;54262;44.642;-0.974;2023-11-21T10:05:16;13.70;99.90
67379;DHT22;54262;44.642;-0.974;2023-11-21T10:07:46;14.50;99.90
67379;DHT22;54262;44.642;-0.974;2023-11-21T10:10:13;13.70;99.90
67379;DHT22;54262;44.642;-0.974;2023-11-21T10:12:39;13.90;99.90
67379;DHT22;54262;44.642;-0.974;2023-11-21T10:15:08;14.10;99.90
67379;DHT22;54262;44.642;-0.974;2023-11-21T10:17:38;14.10;99.90
67379;DHT22;54262;44.642;-0.974;2023-11-21T10:20:10;14.40;99.90
67379;DHT22;54262;44.642;-0.974;2023-11-21T10:22:38;14.20;99.90
67379;DHT22;54262;44.642;-0.974;2023-11-21T10:25:06;14.00;99.90
67379;DHT22;54262;44.642;-0.974;2023-11-21T10:27:36;14.30;99.90
67379;DHT22;54262;44.642;-0.974;2023-11-21T10:30:08;14.50;99.90
67379;DHT22;54262;44.642;-0.974;2023-11-21T10:32:40;14.40;99.90
67379;DHT22;54262;44.642;-0.974;2023-11-21T10:35:09;14.50;99.90
67379;DHT22;54262;44.642;-0.974;2023-11-21T10:37:39;15.30;99.90
67379;DHT22;54262;44.642;-0.974;2023-11-21T10:40:07;14.80;99.90
67379;DHT22;54262;44.642;-0.974;2023-11-21T10:42:33;14.40;99.90
67379;DHT22;54262;44.642;-0.974;2023-11-21T10:44:59;15.00;99.90
67379;DHT22;54262;44.642;-0.974;2023-11-21T10:47:26;14.70;99.90
67379;DHT22;54262;44.642;-0.974;2023-11-21T10:49:52;15.30;99.90
67379;DHT22;54262;44.642;-0.974;2023-11-21T10:52:20;15.40;99.90
67379;DHT22;54262;44.642;-0.974;2023-11-21T10:54:46;14.80;99.90
67379;DHT22;54262;44.642;-0.974;2023-11-21T10:57:17;15.30;99.90
67379;DHT22;54262;44.642;-0.974;2023-11-21T10:59:46;15.80;99.90
67379;DHT22;54262;44.642;-0.974;2023-11-21T11:02:23;15.70;99.90
67379;DHT22;54262;44.642;-0.974;2023-11-21T11:04:58;15.50;99.90
67379;DHT22;54262;44.642;-0.974;2023-11-21T11:07:27;15.20;99.90
67379;DHT22;54262;44.642;-0.974;2023-11-21T11:09:54;14.70;99.90
67379;DHT22;54262;44.642;-0.974;2023-11-21T11:12:20;15.30;99.90
67379;DHT22;54262;44.642;-0.974;2023-11-21T11:14:47;15.60;99.90
67379;DHT22;54262;44.642;-0.974;2023-11-21T11:17:13;15.20;99.90
67379;DHT22;54262;44.642;-0.974;2023-11-21T11:19:39;15.20;99.90
67379;DHT22;54262;44.642;-0.974;2023-11-21T11:22:19;15.20;99.90
67379;DHT22;54262;44.642;-0.974;2023-11-21T11:24:58;15.50;99.90
67379;DHT22;54262;44.642;-0.974;2023-11-21T11:27:48;16.30;99.90
67379;DHT22;54262;44.642;-0.974;2023-11-21T11:33:27;16.00;99.90
67379;DHT22;54262;44.642;-0.974;2023-11-21T11:36:08;15.40;99.90
67379;DHT22;54262;44.642;-0.974;2023-11-21T11:38:36;16.70;99.90
67379;DHT22;54262;44.642;-0.974;2023-11-21T11:41:04;17.70;99.90
67379;DHT22;54262;44.642;-0.974;2023-11-21T11:43:30;15.30;99.90
67379;DHT22;54262;44.642;-0.974;2023-11-21T11:45:59;14.90;99.90
67379;DHT22;54262;44.642;-0.974;2023-11-21T11:48:25;16.00;99.90
67379;DHT22;54262;44.642;-0.974;2023-11-21T11:51:07;15.10;99.90
67379;DHT22;54262;44.642;-0.974;2023-11-21T11:53:36;14.90;99.90
67379;DHT22;54262;44.642;-0.974;2023-11-21T11:56:28;16.70;99.90
67379;DHT22;54262;44.642;-0.974;2023-11-21T11:58:57;15.50;99.90
67379;DHT22;54262;44.642;-0.974;2023-11-21T12:01:25;16.00;99.90
67379;DHT22;54262;44.642;-0.974;2023-11-21T12:06:52;16.00;99.90
67379;DHT22;54262;44.642;-0.974;2023-11-21T12:09:20;16.00;99.90
67379;DHT22;54262;44.642;-0.974;2023-11-21T12:11:47;16.40;99.90
67379;DHT22;54262;44.642;-0.974;2023-11-21T12:14:16;16.60;99.90
67379;DHT22;54262;44.642;-0.974;2023-11-21T12:16:43;16.40;99.90
67379;DHT22;54262;44.642;-0.974;2023-11-21T12:19:12;16.30;99.90
67379;DHT22;54262;44.642;-0.974;2023-11-21T12:21:38;16.50;99.90
67379;DHT22;54262;44.642;-0.974;2023-11-21T12:24:09;16.30;99.90
67379;DHT22;54262;44.642;-0.974;2023-11-21T12:26:35;16.20;99.90
67379;DHT22;54262;44.642;-0.974;2023-11-21T12:29:09;15.80;99.90
67379;DHT22;54262;44.642;-0.974;2023-11-21T12:31:37;16.40;99.90
67379;DHT22;54262;44.642;-0.974;2023-11-21T12:34:04;16.10;99.90
67379;DHT22;54262;44.642;-0.974;2023-11-21T12:36:32;16.00;99.90
67379;DHT22;54262;44.642;-0.974;2023-11-21T12:39:00;16.80;99.90
67379;DHT22;54262;44.642;-0.974;2023-11-21T12:41:25;16.00;99.90
67379;DHT22;54262;44.642;-0.974;2023-11-21T12:43:51;16.10;99.90
67379;DHT22;54262;44.642;-0.974;2023-11-21T12:46:17;16.30;99.90
67379;DHT22;54262;44.642;-0.974;2023-11-21T12:48:44;15.30;99.90
67379;DHT22;54262;44.642;-0.974;2023-11-21T12:51:11;15.90;99.90
67379;DHT22;54262;44.642;-0.974;2023-11-21T12:53:38;15.90;99.90
67379;DHT22;54262;44.642;-0.974;2023-11-21T12:56:10;16.20;99.90
67379;DHT22;54262;44.642;-0.974;2023-11-21T12:58:45;17.10;99.90
67379;DHT22;54262;44.642;-0.974;2023-11-21T13:01:16;17.30;99.90
67379;DHT22;54262;44.642;-0.974;2023-11-21T13:03:47;16.50;99.90
67379;DHT22;54262;44.642;-0.974;2023-11-21T13:06:15;16.00;99.90
67379;DHT22;54262;44.642;-0.974;2023-11-21T13:08:41;16.50;99.90
67379;DHT22;54262;44.642;-0.974;2023-11-21T13:11:10;16.50;99.90
67379;DHT22;54262;44.642;-0.974;2023-11-21T13:13:36;16.70;99.90
67379;DHT22;54262;44.642;-0.974;2023-11-21T13:16:04;16.60;99.90
67379;DHT22;54262;44.642;-0.974;2023-11-21T13:18:30;15.60;99.90
67379;DHT22;54262;44.642;-0.974;2023-11-21T13:21:00;16.10;99.90
67379;DHT22;54262;44.642;-0.974;2023-11-21T13:23:28;15.80;99.90
67379;DHT22;54262;44.642;-0.974;2023-11-21T13:25:55;16.10;99.90
67379;DHT22;54262;44.642;-0.974;2023-11-21T13:28:21;16.90;99.90
67379;DHT22;54262;44.642;-0.974;2023-11-21T13:30:49;17.30;99.90
67379;DHT22;54262;44.642;-0.974;2023-11-21T13:33:18;16.60;99.90
67379;DHT22;54262;44.642;-0.974;2023-11-21T13:35:47;16.50;99.90
67379;DHT22;54262;44.642;-0.974;2023-11-21T13:38:34;16.00;99.90
67379;DHT22;54262;44.642;-0.974;2023-11-21T13:41:01;16.90;99.90
67379;DHT22;54262;44.642;-0.974;2023-11-21T13:43:26;16.30;99.90
67379;DHT22;54262;44.642;-0.974;2023-11-21T13:45:54;16.10;99.90
67379;DHT22;54262;44.642;-0.974;2023-11-21T13:48:29;15.40;99.90
67379;DHT22;54262;44.642;-0.974;2023-11-21T13:51:06;16.10;99.90
67379;DHT22;54262;44.642;-0.974;2023-11-21T13:53:46;16.20;99.90
67379;DHT22;54262;44.642;-0.974;2023-11-21T13:56:15;15.90;99.90
67379;DHT22;54262;44.642;-0.974;2023-11-21T13:58:45;16.00;99.90
67379;DHT22;54262;44.642;-0.974;2023-11-21T14:01:23;15.90;99.90
67379;DHT22;54262;44.642;-0.974;2023-11-21T14:03:49;16.40;99.90
67379;DHT22;54262;44.642;-0.974;2023-11-21T14:06:22;16.10;99.90
67379;DHT22;54262;44.642;-0.974;2023-11-21T14:08:52;15.80;99.90
67379;DHT22;54262;44.642;-0.974;2023-11-21T14:11:22;16.10;99.90
67379;DHT22;54262;44.642;-0.974;2023-11-21T14:13:47;16.70;99.90
67379;DHT22;54262;44.642;-0.974;2023-11-21T14:16:15;16.40;99.90
67379;DHT22;54262;44.642;-0.974;2023-11-21T14:18:42;16.10;99.90
67379;DHT22;54262;44.642;-0.974;2023-11-21T14:21:21;15.60;99.90
67379;DHT22;54262;44.642;-0.974;2023-11-21T14:23:47;15.20;99.90
67379;DHT22;54262;44.642;-0.974;2023-11-21T14:26:13;16.00;99.90
67379;DHT22;54262;44.642;-0.974;2023-11-21T14:28:40;16.00;99.90
67379;DHT22;54262;44.642;-0.974;2023-11-21T14:31:09;16.40;99.90
67379;DHT22;54262;44.642;-0.974;2023-11-21T14:33:40;16.00;99.90
67379;DHT22;54262;44.642;-0.974;2023-11-21T14:36:07;15.80;99.90
67379;DHT22;54262;44.642;-0.974;2023-11-21T14:38:36;15.40;99.90
67379;DHT22;54262;44.642;-0.974;2023-11-21T14:41:03;15.60;99.90
67379;DHT22;54262;44.642;-0.974;2023-11-21T14:43:29;16.20;99.90
67379;DHT22;54262;44.642;-0.974;2023-11-21T14:45:59;16.10;99.90
67379;DHT22;54262;44.642;-0.974;2023-11-21T14:48:25;15.90;99.90
67379;DHT22;54262;44.642;-0.974;2023-11-21T14:51:11;16.90;99.90
67379;DHT22;54262;44.642;-0.974;2023-11-21T14:53:49;16.40;99.90
67379;DHT22;54262;44.642;-0.974;2023-11-21T14:56:22;16.00;99.90
67379;DHT22;54262;44.642;-0.974;2023-11-21T14:58:53;16.10;99.90
67379;DHT22;54262;44.642;-0.974;2023-11-21T15:01:20;15.90;99.90
67379;DHT22;54262;44.642;-0.974;2023-11-21T15:03:59;16.10;99.90
67379;DHT22;54262;44.642;-0.974;2023-11-21T15:06:25;15.80;99.90
67379;DHT22;54262;44.642;-0.974;2023-11-21T15:08:57;15.40;99.90
67379;DHT22;54262;44.642;-0.974;2023-11-21T15:11:26;15.30;99.90
67379;DHT22;54262;44.642;-0.974;2023-11-21T15:13:57;15.60;99.90
67379;DHT22;54262;44.642;-0.974;2023-11-21T15:16:22;14.70;99.90
67379;DHT22;54262;44.642;-0.974;2023-11-21T15:18:48;15.30;99.90
67379;DHT22;54262;44.642;-0.974;2023-11-21T15:21:14;15.20;99.90
67379;DHT22;54262;44.642;-0.974;2023-11-21T15:23:40;14.90;99.90
67379;DHT22;54262;44.642;-0.974;2023-11-21T15:26:07;15.10;99.90
67379;DHT22;54262;44.642;-0.974;2023-11-21T15:28:34;15.00;99.90
67379;DHT22;54262;44.642;-0.974;2023-11-21T15:31:00;15.90;99.90